Time;durP1;ratioP1;P1;durP2;ratioP2;P2;SDS_P1;SDS_P2;PMS_P1;PMS_P2;Temp;Humidity;BMP_temperature;BMP_pressure;BME280_temperature;BME280_humidity;BME280_pressure;Samples;Min_cycle;Max_cycle;Signal;HPM_P1;HPM_P2
2021/04/25 00:01:37;;;;;;;10.27;1.55;;;6.00;99.90;;;;;;6181272;23;20095;-88
2021/04/25 00:04:05;;;;;;;2.95;0.70;;;6.00;99.90;;;;;;6183027;23;20041;-88
2021/04/25 00:06:31;;;;;;;5.63;0.90;;;6.10;99.90;;;;;;6179922;23;20029;-88
2021/04/25 00:08:58;;;;;;;4.20;1.20;;;6.10;99.90;;;;;;6181392;23;20028;-88
2021/04/25 00:11:23;;;;;;;2.03;0.63;;;6.00;99.90;;;;;;6181505;23;20020;-87
2021/04/25 00:13:49;;;;;;;3.95;1.10;;;6.00;99.90;;;;;;6181031;23;20021;-89
2021/04/25 00:16:15;;;;;;;9.25;1.63;;;6.00;99.90;;;;;;6180143;23;20021;-89
2021/04/25 00:18:41;;;;;;;4.50;0.73;;;6.00;99.90;;;;;;6182600;23;20103;-87
2021/04/25 00:21:07;;;;;;;6.30;1.48;;;6.00;99.90;;;;;;6180539;23;20040;-88
2021/04/25 00:23:33;;;;;;;8.55;1.30;;;6.10;99.90;;;;;;6180213;23;20133;-88
2021/04/25 00:25:59;;;;;;;4.43;1.55;;;6.00;99.90;;;;;;6180588;23;20259;-89
2021/04/25 00:28:25;;;;;;;7.03;1.10;;;6.00;99.90;;;;;;6181108;23;20439;-87
2021/04/25 00:30:51;;;;;;;14.13;1.10;;;5.90;99.90;;;;;;6155651;23;20028;-86
2021/04/25 00:33:17;;;;;;;6.32;1.23;;;5.90;99.90;;;;;;6181352;23;20044;-88
2021/04/25 00:35:43;;;;;;;8.80;1.52;;;5.90;99.90;;;;;;6155811;23;20025;-89
2021/04/25 00:38:09;;;;;;;7.63;1.33;;;5.90;99.90;;;;;;6180102;23;20439;-88
2021/04/25 00:40:35;;;;;;;9.50;1.25;;;5.90;99.90;;;;;;6181260;23;20024;-87
2021/04/25 00:43:01;;;;;;;13.73;1.98;;;5.80;99.90;;;;;;6155891;23;20025;-88
2021/04/25 00:45:26;;;;;;;7.20;1.40;;;5.80;99.90;;;;;;6179765;23;20021;-87
2021/04/25 00:47:52;;;;;;;9.52;1.40;;;5.80;99.90;;;;;;6180726;23;20035;-88
2021/04/25 00:50:24;;;;;;;11.02;1.27;;;5.80;99.90;;;;;;6181370;23;20017;-87
2021/04/25 00:52:51;;;;;;;6.88;1.02;;;5.80;99.90;;;;;;6181919;23;20091;-87
2021/04/25 00:55:18;;;;;;;3.25;1.02;;;5.80;99.90;;;;;;6179616;23;20021;-87
2021/04/25 00:57:45;;;;;;;10.27;1.00;;;5.80;99.90;;;;;;6180393;23;20024;-88
2021/04/25 01:00:12;;;;;;;10.30;1.63;;;5.80;99.90;;;;;;6182389;23;20028;-87
2021/04/25 01:02:39;;;;;;;4.57;0.90;;;5.70;99.90;;;;;;6181224;23;20392;-88
2021/04/25 01:05:08;;;;;;;1.60;1.05;;;5.80;99.90;;;;;;6182379;23;20466;-87
2021/04/25 01:07:34;;;;;;;11.48;1.70;;;5.70;99.90;;;;;;6181092;23;20085;-87
2021/04/25 01:10:00;;;;;;;2.47;0.85;;;5.80;99.90;;;;;;6156015;23;20044;-87
2021/04/25 01:12:25;;;;;;;5.75;0.95;;;5.80;99.90;;;;;;6179794;23;20048;-87
2021/04/25 01:14:52;;;;;;;7.75;1.27;;;5.80;99.90;;;;;;6180862;23;20047;-86
2021/04/25 01:17:18;;;;;;;5.70;1.02;;;5.80;99.90;;;;;;6179883;23;20020;-87
2021/04/25 01:19:43;;;;;;;1.70;0.60;;;5.80;99.90;;;;;;6155439;23;20013;-87
2021/04/25 01:22:09;;;;;;;5.72;1.17;;;5.80;99.90;;;;;;6155884;23;20100;-89
2021/04/25 01:24:35;;;;;;;10.07;1.52;;;5.80;99.90;;;;;;6181203;23;20047;-89
2021/04/25 01:27:01;;;;;;;10.73;1.23;;;5.90;99.90;;;;;;6180789;23;20020;-90
2021/04/25 01:29:26;;;;;;;11.20;1.13;;;5.80;99.90;;;;;;6179544;23;20071;-89
2021/04/25 01:31:52;;;;;;;4.72;0.90;;;5.80;99.90;;;;;;6180237;23;20051;-88
2021/04/25 01:34:18;;;;;;;4.78;0.88;;;5.80;99.90;;;;;;6181049;23;20021;-87
2021/04/25 01:36:44;;;;;;;8.38;1.73;;;5.80;99.90;;;;;;6179333;23;20025;-87
2021/04/25 01:39:10;;;;;;;3.00;0.50;;;5.90;99.90;;;;;;6180239;23;20113;-88
2021/04/25 01:41:36;;;;;;;11.60;1.23;;;5.90;99.90;;;;;;6179010;23;20107;-87
2021/04/25 01:44:03;;;;;;;2.65;0.65;;;5.80;99.90;;;;;;6180736;23;20453;-88
2021/04/25 01:46:29;;;;;;;4.18;0.63;;;5.80;99.90;;;;;;6179158;23;20032;-87
2021/04/25 01:48:55;;;;;;;9.95;0.93;;;5.80;99.90;;;;;;6180494;23;20017;-87
2021/04/25 01:51:21;;;;;;;3.20;0.50;;;5.80;99.90;;;;;;6181960;23;20017;-87
2021/04/25 01:53:47;;;;;;;10.77;1.15;;;5.80;99.90;;;;;;6181268;23;20088;-87
2021/04/25 01:56:13;;;;;;;2.92;0.68;;;5.70;99.90;;;;;;6181965;23;20360;-87
2021/04/25 01:58:39;;;;;;;2.85;0.65;;;5.70;99.90;;;;;;6180649;23;20017;-87
2021/04/25 02:01:05;;;;;;;3.72;0.82;;;5.70;99.90;;;;;;6180433;23;20104;-87
2021/04/25 02:03:31;;;;;;;4.38;1.10;;;5.70;99.90;;;;;;6154194;23;20112;-87
2021/04/25 02:05:57;;;;;;;14.32;2.10;;;5.60;99.90;;;;;;6181725;23;20040;-88
2021/04/25 02:08:23;;;;;;;7.38;0.90;;;5.60;99.90;;;;;;6180956;23;20023;-86
2021/04/25 02:10:50;;;;;;;11.40;1.30;;;5.70;99.90;;;;;;6179802;23;20095;-87
2021/04/25 02:13:17;;;;;;;9.57;0.98;;;5.60;99.90;;;;;;6181610;23;20039;-88
2021/04/25 02:15:43;;;;;;;3.03;0.85;;;5.60;99.90;;;;;;6178503;23;20053;-87
2021/04/25 02:18:08;;;;;;;5.03;1.00;;;5.60;99.90;;;;;;6179984;23;20497;-88
2021/04/25 02:20:35;;;;;;;1.25;0.43;;;5.60;99.90;;;;;;6178968;23;20017;-87
2021/04/25 02:23:01;;;;;;;8.48;1.60;;;5.60;99.90;;;;;;6181508;23;20036;-87
2021/04/25 02:25:27;;;;;;;13.57;1.35;;;5.60;99.90;;;;;;6180733;23;20388;-86
2021/04/25 02:27:53;;;;;;;15.70;1.45;;;5.60;99.90;;;;;;6155480;23;20104;-87
2021/04/25 02:30:28;;;;;;;11.88;1.02;;;5.60;99.90;;;;;;6181376;23;20454;-88
2021/04/25 02:32:56;;;;;;;8.70;1.40;;;5.60;99.90;;;;;;6189544;23;20017;-88
2021/04/25 02:35:22;;;;;;;2.50;0.50;;;5.60;99.90;;;;;;6179850;23;20017;-88
2021/04/25 02:37:50;;;;;;;4.78;1.05;;;5.60;99.90;;;;;;6180540;23;20084;-88
2021/04/25 02:40:19;;;;;;;3.03;0.57;;;5.60;99.90;;;;;;6181155;23;20035;-88
2021/04/25 02:42:46;;;;;;;6.15;1.10;;;5.60;99.90;;;;;;6180458;23;20439;-88
2021/04/25 02:45:16;;;;;;;4.15;1.27;;;5.60;99.90;;;;;;6155086;23;20021;-88
2021/04/25 02:47:53;;;;;;;;;;;5.60;99.90;;;;;;6190624;23;20521;-88
2021/04/25 02:50:22;;;;;;;14.30;1.15;;;5.60;99.90;;;;;;6164906;23;19916;-87
2021/04/25 02:52:48;;;;;;;7.43;2.05;;;5.70;99.90;;;;;;6180248;23;20005;-88
2021/04/25 02:55:14;;;;;;;9.00;1.17;;;5.70;99.90;;;;;;6181149;23;20013;-88
2021/04/25 02:57:40;;;;;;;7.25;1.48;;;5.70;99.90;;;;;;6180146;23;20024;-88
2021/04/25 03:00:09;;;;;;;6.20;0.95;;;5.70;99.90;;;;;;6154853;23;20312;-88
2021/04/25 03:02:35;;;;;;;12.90;3.33;;;5.70;99.90;;;;;;6180331;23;20024;-87
2021/04/25 03:05:02;;;;;;;4.30;0.85;;;5.70;99.90;;;;;;6130264;23;20013;-88
2021/04/25 03:07:27;;;;;;;7.72;0.80;;;5.70;99.90;;;;;;6180679;23;20017;-86
2021/04/25 03:09:53;;;;;;;10.50;1.80;;;5.70;99.90;;;;;;6154807;23;20328;-88
2021/04/25 03:12:19;;;;;;;10.30;1.30;;;5.70;99.90;;;;;;6154866;23;20020;-88
2021/04/25 03:14:45;;;;;;;10.40;1.20;;;5.70;99.90;;;;;;6129599;23;20021;-87
2021/04/25 03:17:11;;;;;;;8.60;1.02;;;5.80;99.90;;;;;;6154635;23;20025;-88
2021/04/25 03:19:36;;;;;;;15.30;1.25;;;5.80;99.90;;;;;;6153880;23;20028;-87
2021/04/25 03:22:02;;;;;;;4.47;0.55;;;5.80;99.90;;;;;;6155226;23;20013;-88
2021/04/25 03:24:28;;;;;;;12.82;1.20;;;5.90;99.90;;;;;;6180463;23;20017;-87
2021/04/25 03:26:54;;;;;;;1.63;0.70;;;5.80;99.90;;;;;;6153935;23;20517;-90
2021/04/25 03:29:20;;;;;;;8.68;0.77;;;5.90;99.90;;;;;;6130352;23;20028;-87
2021/04/25 03:31:46;;;;;;;9.32;1.00;;;5.80;99.90;;;;;;6153870;23;20013;-89
2021/04/25 03:34:12;;;;;;;6.10;0.65;;;5.80;99.90;;;;;;6130463;23;20032;-88
2021/04/25 03:36:38;;;;;;;17.90;2.28;;;5.80;99.90;;;;;;6153956;23;20032;-89
2021/04/25 03:39:06;;;;;;;12.48;1.30;;;5.80;99.90;;;;;;6155110;23;20815;-89
2021/04/25 03:41:32;;;;;;;16.10;2.15;;;5.80;99.90;;;;;;6163299;23;20543;-87
2021/04/25 03:43:58;;;;;;;8.65;1.60;;;5.80;99.90;;;;;;6211341;23;20339;-88
2021/04/25 03:46:24;;;;;;;8.80;1.45;;;5.80;99.90;;;;;;6210761;23;20020;-88
2021/04/25 03:48:50;;;;;;;5.88;1.20;;;5.80;99.90;;;;;;6183936;23;20016;-89
2021/04/25 03:51:16;;;;;;;7.28;1.20;;;5.80;99.90;;;;;;6184256;23;20027;-88
2021/04/25 03:53:42;;;;;;;3.53;0.77;;;5.80;99.90;;;;;;6208659;23;20020;-87
2021/04/25 03:56:08;;;;;;;14.70;2.10;;;5.80;99.90;;;;;;6209118;23;20012;-87
2021/04/25 03:58:33;;;;;;;10.77;1.35;;;5.80;99.90;;;;;;6183649;23;20047;-87
2021/04/25 04:00:59;;;;;;;9.32;1.40;;;5.80;99.90;;;;;;6211644;23;20017;-87
2021/04/25 04:03:25;;;;;;;9.23;1.38;;;5.80;99.90;;;;;;6186526;23;20017;-88
2021/04/25 04:05:51;;;;;;;11.52;1.10;;;5.80;99.90;;;;;;6211687;23;20044;-88
2021/04/25 04:08:17;;;;;;;8.93;0.75;;;5.80;99.90;;;;;;6212616;23;20017;-88
2021/04/25 04:10:43;;;;;;;5.10;0.93;;;5.90;99.90;;;;;;6211891;23;20423;-89
2021/04/25 04:13:11;;;;;;;13.82;1.05;;;5.80;99.90;;;;;;6212549;23;20013;-89
2021/04/25 04:15:37;;;;;;;4.20;1.08;;;5.80;99.90;;;;;;6185299;23;20043;-87
2021/04/25 04:18:03;;;;;;;15.35;2.10;;;5.80;99.90;;;;;;6186167;23;20059;-87
2021/04/25 04:20:29;;;;;;;11.68;2.63;;;5.80;99.90;;;;;;6212790;23;20434;-87
2021/04/25 04:22:55;;;;;;;4.85;0.77;;;5.80;99.90;;;;;;6184955;23;20016;-88
2021/04/25 04:25:21;;;;;;;13.70;1.58;;;5.80;99.90;;;;;;6161021;23;20017;-88
2021/04/25 04:27:47;;;;;;;3.45;0.88;;;5.80;99.90;;;;;;6210875;23;20074;-87
2021/04/25 04:30:13;;;;;;;8.95;1.10;;;5.80;99.90;;;;;;6186018;23;20024;-88
2021/04/25 04:32:39;;;;;;;7.38;0.70;;;5.80;99.90;;;;;;6209449;23;20020;-88
2021/04/25 04:35:07;;;;;;;6.47;0.95;;;5.80;99.90;;;;;;6186357;23;20061;-88
2021/04/25 04:37:33;;;;;;;12.77;0.85;;;5.80;99.90;;;;;;6212014;23;20442;-88
2021/04/25 04:39:59;;;;;;;9.52;1.52;;;5.80;99.90;;;;;;6211278;23;20017;-88
2021/04/25 04:42:25;;;;;;;6.78;1.40;;;5.80;99.90;;;;;;6191297;23;20355;-87
2021/04/25 04:44:51;;;;;;;7.97;0.95;;;5.80;99.90;;;;;;6181092;23;20028;-88
2021/04/25 04:47:16;;;;;;;8.95;0.93;;;5.80;99.90;;;;;;6155999;23;20527;-88
2021/04/25 04:49:42;;;;;;;4.95;0.95;;;5.80;99.90;;;;;;6181479;23;20048;-87
2021/04/25 04:52:08;;;;;;;11.38;1.27;;;5.80;99.90;;;;;;6131697;23;20024;-86
2021/04/25 04:54:34;;;;;;;15.27;1.65;;;5.90;99.90;;;;;;6182362;23;20020;-87
2021/04/25 04:57:00;;;;;;;5.53;0.52;;;5.90;99.90;;;;;;6155387;23;20017;-87
2021/04/25 04:59:26;;;;;;;6.90;1.60;;;5.90;99.90;;;;;;6182128;23;20094;-87
2021/04/25 05:01:51;;;;;;;6.60;2.00;;;5.90;99.90;;;;;;6130540;23;20021;-87
2021/04/25 05:04:17;;;;;;;3.22;0.65;;;6.00;99.90;;;;;;6182442;23;20017;-86
2021/04/25 05:06:44;;;;;;;4.90;1.13;;;5.90;99.90;;;;;;6154458;23;20021;-87
2021/04/25 05:09:09;;;;;;;11.20;1.38;;;5.90;99.90;;;;;;6155817;23;20383;-88
2021/04/25 05:11:36;;;;;;;3.63;1.30;;;5.90;99.90;;;;;;6182008;23;20020;-87
2021/04/25 05:14:02;;;;;;;3.05;0.55;;;5.90;99.90;;;;;;6181265;23;20017;-88
2021/04/25 05:16:28;;;;;;;5.47;0.73;;;5.90;99.90;;;;;;6130893;23;20320;-87
2021/04/25 05:18:54;;;;;;;12.65;1.50;;;5.90;99.90;;;;;;6130267;23;20025;-87
2021/04/25 05:21:20;;;;;;;8.77;0.85;;;5.90;99.90;;;;;;6155316;23;20459;-87
2021/04/25 05:23:46;;;;;;;9.63;0.95;;;5.90;99.90;;;;;;6180874;23;20020;-86
2021/04/25 05:26:12;;;;;;;12.90;1.65;;;5.90;99.90;;;;;;6181319;23;20040;-86
2021/04/25 05:28:37;;;;;;;5.68;0.82;;;5.90;99.90;;;;;;6180983;23;20048;-86
2021/04/25 05:31:04;;;;;;;14.40;1.15;;;5.90;99.90;;;;;;6130335;23;20013;-86
2021/04/25 05:33:30;;;;;;;8.52;1.20;;;6.00;99.90;;;;;;6182114;23;20044;-86
2021/04/25 05:35:56;;;;;;;1.15;0.65;;;6.00;99.90;;;;;;6154505;23;20466;-86
2021/04/25 05:38:22;;;;;;;6.10;1.17;;;6.10;99.90;;;;;;6181424;23;20038;-86
2021/04/25 05:40:48;;;;;;;6.22;1.10;;;6.10;99.90;;;;;;6129845;23;20568;-85
2021/04/25 05:43:14;;;;;;;7.20;1.05;;;6.10;99.90;;;;;;6191283;23;20049;-86
2021/04/25 05:45:40;;;;;;;10.57;1.38;;;6.10;99.90;;;;;;6181517;23;20032;-85
2021/04/25 05:48:06;;;;;;;8.38;1.10;;;6.10;99.90;;;;;;6154751;23;20017;-86
2021/04/25 05:50:33;;;;;;;12.52;2.60;;;6.10;99.90;;;;;;6155604;23;20021;-87
2021/04/25 05:52:58;;;;;;;3.75;0.73;;;6.10;99.90;;;;;;6180838;23;20760;-87
2021/04/25 05:55:25;;;;;;;6.07;1.23;;;6.10;99.90;;;;;;6181391;23;20055;-87
2021/04/25 05:57:51;;;;;;;6.90;0.88;;;6.20;99.90;;;;;;6154480;23;20510;-86
2021/04/25 06:00:21;;;;;;;11.07;1.70;;;6.20;99.90;;;;;;6181471;23;20092;-87
2021/04/25 06:02:47;;;;;;;6.67;1.67;;;6.20;99.90;;;;;;6154066;23;20017;-87
2021/04/25 06:05:13;;;;;;;10.85;2.40;;;6.20;99.90;;;;;;6155115;23;20497;-87
2021/04/25 06:07:39;;;;;;;10.15;1.70;;;6.20;99.90;;;;;;6130640;23;20067;-88
2021/04/25 06:10:06;;;;;;;4.63;0.60;;;6.30;99.90;;;;;;6153385;23;20020;-87
2021/04/25 06:12:33;;;;;;;9.15;2.00;;;6.30;99.90;;;;;;6130859;23;20021;-86
2021/04/25 06:14:59;;;;;;;8.52;0.77;;;6.30;99.90;;;;;;6154575;23;20013;-88
2021/04/25 06:17:25;;;;;;;4.65;1.85;;;6.30;99.90;;;;;;6130845;23;20048;-87
2021/04/25 06:19:51;;;;;;;6.82;0.98;;;6.30;99.90;;;;;;6129928;23;20025;-86
2021/04/25 06:22:18;;;;;;;14.48;1.30;;;6.40;99.90;;;;;;6180828;23;20032;-85
2021/04/25 06:24:44;;;;;;;10.40;1.65;;;6.40;99.90;;;;;;6180274;23;20024;-86
2021/04/25 06:27:10;;;;;;;8.30;1.67;;;6.50;99.90;;;;;;6154457;23;20017;-87
2021/04/25 06:29:36;;;;;;;8.52;1.20;;;6.40;99.90;;;;;;6154816;23;20048;-87
2021/04/25 06:32:04;;;;;;;10.23;1.70;;;6.50;99.90;;;;;;6154085;23;20075;-87
2021/04/25 06:34:30;;;;;;;4.28;0.85;;;6.50;99.90;;;;;;6154707;23;20028;-87
2021/04/25 06:36:56;;;;;;;5.43;1.00;;;6.40;99.90;;;;;;6154195;23;20080;-88
2021/04/25 06:39:22;;;;;;;11.52;1.20;;;6.50;99.90;;;;;;6154176;23;20021;-87
2021/04/25 06:41:48;;;;;;;6.63;0.93;;;6.50;99.90;;;;;;6137776;23;20013;-85
2021/04/25 06:44:13;;;;;;;8.73;1.33;;;6.50;99.90;;;;;;6179602;23;20021;-87
2021/04/25 06:46:39;;;;;;;8.00;1.45;;;6.60;99.90;;;;;;6179949;23;20013;-86
2021/04/25 06:49:05;;;;;;;7.60;1.23;;;6.60;99.90;;;;;;6180312;23;20573;-88
2021/04/25 06:51:31;;;;;;;8.02;0.88;;;6.60;99.90;;;;;;6179612;23;20037;-87
2021/04/25 06:53:57;;;;;;;5.50;1.10;;;6.70;99.90;;;;;;6179827;23;20036;-86
2021/04/25 06:56:23;;;;;;;4.18;0.82;;;6.70;99.90;;;;;;6179908;23;20013;-86
2021/04/25 06:58:49;;;;;;;5.45;1.20;;;6.70;99.90;;;;;;6179194;23;20032;-86
2021/04/25 07:01:15;;;;;;;9.23;1.85;;;6.80;99.90;;;;;;6180820;23;20328;-86
2021/04/25 07:03:41;;;;;;;3.50;0.82;;;6.80;99.90;;;;;;6179657;23;20466;-87
2021/04/25 07:06:07;;;;;;;8.27;1.08;;;6.80;99.90;;;;;;6178438;23;20021;-88
2021/04/25 07:08:33;;;;;;;5.15;0.80;;;6.80;99.90;;;;;;6180315;23;20120;-86
2021/04/25 07:10:59;;;;;;;0.98;0.32;;;6.80;99.90;;;;;;6179541;23;20025;-86
2021/04/25 07:13:25;;;;;;;3.08;0.70;;;6.90;99.90;;;;;;6180865;23;20099;-87
2021/04/25 07:15:51;;;;;;;10.75;1.20;;;6.90;99.90;;;;;;6177827;23;20506;-86
2021/04/25 07:18:17;;;;;;;8.80;0.93;;;6.90;99.90;;;;;;6180566;23;20020;-87
2021/04/25 07:20:43;;;;;;;8.65;1.05;;;7.00;99.90;;;;;;6179785;23;20024;-86
2021/04/25 07:23:08;;;;;;;11.40;1.23;;;7.00;99.90;;;;;;6153854;23;20024;-85
2021/04/25 07:25:35;;;;;;;8.70;1.60;;;7.00;99.90;;;;;;6179325;23;20021;-89
2021/04/25 07:28:01;;;;;;;13.30;0.80;;;7.10;99.90;;;;;;6153142;23;20029;-85
2021/04/25 07:30:26;;;;;;;8.75;1.90;;;7.10;99.90;;;;;;6179699;23;20052;-85
2021/04/25 07:32:53;;;;;;;2.97;0.60;;;7.10;99.90;;;;;;6178327;23;20346;-85
2021/04/25 07:35:19;;;;;;;10.75;1.40;;;7.20;99.90;;;;;;6180560;23;20100;-85
2021/04/25 07:37:47;;;;;;;9.07;1.00;;;7.20;99.90;;;;;;6181647;23;20053;-84
2021/04/25 07:40:13;;;;;;;18.17;1.30;;;7.30;99.90;;;;;;6179746;23;20047;-85
2021/04/25 07:42:39;;;;;;;4.07;0.82;;;7.30;99.90;;;;;;6188282;23;20024;-85
2021/04/25 07:45:08;;;;;;;4.63;1.10;;;7.30;99.90;;;;;;6181530;23;20028;-85
2021/04/25 07:47:35;;;;;;;3.30;0.77;;;7.30;99.90;;;;;;6182451;23;20095;-86
2021/04/25 07:50:00;;;;;;;2.40;0.73;;;7.30;99.90;;;;;;6155151;23;20793;-86
2021/04/25 07:52:26;;;;;;;9.93;1.38;;;7.40;99.90;;;;;;6182412;23;20144;-86
2021/04/25 07:54:52;;;;;;;7.40;1.40;;;7.50;99.90;;;;;;6155500;23;20027;-85
2021/04/25 07:57:18;;;;;;;2.08;0.50;;;7.50;99.90;;;;;;6155737;23;20072;-85
2021/04/25 07:59:44;;;;;;;4.07;0.90;;;7.60;99.90;;;;;;6181893;23;20064;-85
2021/04/25 08:02:10;;;;;;;5.03;1.80;;;7.50;99.90;;;;;;6155033;23;20021;-86
2021/04/25 08:04:36;;;;;;;6.95;2.25;;;7.50;99.90;;;;;;6154511;23;20328;-85
2021/04/25 08:07:01;;;;;;;6.90;1.00;;;7.50;99.90;;;;;;6128719;23;20499;-85
2021/04/25 08:09:28;;;;;;;5.57;1.05;;;7.50;99.90;;;;;;6155282;23;20017;-85
2021/04/25 08:11:56;;;;;;;8.63;0.90;;;7.60;99.90;;;;;;6155432;23;20321;-85
2021/04/25 08:14:22;;;;;;;5.00;1.40;;;7.60;99.90;;;;;;6181488;23;20017;-84
2021/04/25 08:16:48;;;;;;;9.25;1.63;;;7.70;99.90;;;;;;6156382;23;20074;-85
2021/04/25 08:19:13;;;;;;;8.90;1.33;;;7.70;99.90;;;;;;6180613;23;20020;-85
2021/04/25 08:21:40;;;;;;;5.05;1.50;;;7.70;99.90;;;;;;6181991;23;20020;-85
2021/04/25 08:24:07;;;;;;;4.78;0.80;;;7.70;99.90;;;;;;6129572;23;20025;-85
2021/04/25 08:26:32;;;;;;;16.20;1.80;;;7.70;99.90;;;;;;6181995;23;20021;-85
2021/04/25 08:28:58;;;;;;;10.73;1.42;;;7.70;99.90;;;;;;6155309;23;20125;-85
2021/04/25 08:31:24;;;;;;;9.25;1.13;;;7.70;99.90;;;;;;6181335;23;20031;-85
2021/04/25 08:33:50;;;;;;;4.15;0.80;;;7.80;99.90;;;;;;6181471;23;20477;-85
2021/04/25 08:36:16;;;;;;;5.45;0.95;;;7.80;99.90;;;;;;6180605;23;20051;-85
2021/04/25 08:38:43;;;;;;;7.90;1.40;;;7.80;99.90;;;;;;6155767;23;20469;-85
2021/04/25 08:41:13;;;;;;;2.83;0.70;;;7.80;99.90;;;;;;6154319;23;20021;-85
2021/04/25 08:43:42;;;;;;;8.32;0.90;;;7.80;99.90;;;;;;6191391;23;20024;-86
2021/04/25 08:46:09;;;;;;;8.07;1.15;;;7.90;99.90;;;;;;6130001;23;20017;-85
2021/04/25 08:48:35;;;;;;;6.22;1.17;;;7.90;99.90;;;;;;6155306;23;20344;-85
2021/04/25 08:51:02;;;;;;;2.70;0.60;;;8.00;99.90;;;;;;6180811;23;20029;-86
2021/04/25 08:53:28;;;;;;;9.02;2.30;;;8.00;99.40;;;;;;6156213;23;20092;-85
2021/04/25 08:55:54;;;;;;;9.85;1.85;;;8.00;99.90;;;;;;6155752;23;20021;-85
2021/04/25 08:58:21;;;;;;;12.93;1.77;;;8.10;99.90;;;;;;6180651;23;20071;-85
2021/04/25 09:00:48;;;;;;;3.67;0.47;;;8.20;99.90;;;;;;6181437;23;20021;-86
2021/04/25 09:03:16;;;;;;;10.77;1.40;;;8.20;99.90;;;;;;6130250;23;20047;-85
2021/04/25 09:05:43;;;;;;;13.93;1.58;;;8.30;99.90;;;;;;6155644;23;20523;-85
2021/04/25 09:08:10;;;;;;;20.00;2.88;;;8.40;99.90;;;;;;6181381;23;20044;-86
2021/04/25 09:10:42;;;;;;;4.80;1.27;;;8.40;99.90;;;;;;6181721;23;20017;-85
2021/04/25 09:13:20;;;;;;;7.22;1.35;;;8.50;99.90;;;;;;6180974;23;20013;-85
2021/04/25 09:15:48;;;;;;;14.35;1.55;;;8.50;99.90;;;;;;6181318;23;20013;-85
2021/04/25 09:18:14;;;;;;;8.93;1.20;;;8.40;99.90;;;;;;6154691;23;20021;-85
2021/04/25 09:20:48;;;;;;;10.10;1.45;;;8.40;99.90;;;;;;6130964;23;20031;-86
2021/04/25 09:23:27;;;;;;;7.55;0.90;;;8.30;99.90;;;;;;6164032;23;20043;-88
2021/04/25 09:26:03;;;;;;;7.35;1.48;;;8.40;99.90;;;;;;6165293;23;20075;-86
2021/04/25 09:28:30;;;;;;;14.32;1.42;;;8.40;99.90;;;;;;6181758;23;20027;-87
2021/04/25 09:31:06;;;;;;;13.82;2.20;;;8.40;99.90;;;;;;6154970;23;20103;-86
2021/04/25 09:33:49;;;;;;;14.43;2.42;;;8.40;99.90;;;;;;6181665;23;20056;-86
2021/04/25 09:36:19;;;;;;;14.57;1.63;;;8.50;99.90;;;;;;6154235;23;20092;-86
2021/04/25 09:38:45;;;;;;;8.43;1.58;;;8.60;99.90;;;;;;6164697;23;20431;-87
2021/04/25 09:41:41;;;;;;;11.18;1.98;;;8.70;99.90;;;;;;6153882;23;20023;-88
2021/04/25 09:44:07;;;;;;;8.30;1.95;;;8.90;99.90;;;;;;6163895;23;20017;-87
2021/04/25 09:46:53;;;;;;;5.80;0.90;;;8.90;99.90;;;;;;6154908;23;20023;-86
2021/04/25 09:49:39;;;;;;;10.07;1.60;;;8.90;99.90;;;;;;6180654;23;20053;-86
2021/04/25 09:52:06;;;;;;;11.25;1.60;;;9.00;99.90;;;;;;6179800;23;20025;-86
2021/04/25 09:54:32;;;;;;;6.10;1.10;;;9.00;99.90;;;;;;6155549;23;20072;-86
2021/04/25 09:56:58;;;;;;;10.85;1.75;;;9.00;99.90;;;;;;6154918;23;20321;-86
2021/04/25 09:59:24;;;;;;;10.85;1.48;;;9.00;99.90;;;;;;6179730;23;20856;-86
2021/04/25 10:02:04;;;;;;;12.07;1.58;;;9.00;99.90;;;;;;6129846;23;20024;-86
2021/04/25 10:04:39;;;;;;;11.15;1.67;;;8.90;99.90;;;;;;6181257;23;20032;-86
2021/04/25 10:07:07;;;;;;;11.27;1.50;;;8.80;99.90;;;;;;6128424;23;20035;-85
2021/04/25 10:09:35;;;;;;;8.02;1.67;;;8.60;99.90;;;;;;6180533;23;20021;-86
2021/04/25 10:12:03;;;;;;;10.48;1.45;;;8.60;99.90;;;;;;6180018;23;20025;-86
2021/04/25 10:14:31;;;;;;;2.92;0.82;;;8.60;99.90;;;;;;6180591;23;20021;-86
2021/04/25 10:16:58;;;;;;;5.70;1.15;;;8.70;99.90;;;;;;6154672;23;20041;-86
2021/04/25 10:19:24;;;;;;;7.75;1.77;;;8.80;99.90;;;;;;6153448;23;20041;-86
2021/04/25 10:21:51;;;;;;;9.82;1.40;;;8.80;99.90;;;;;;6130216;23;20021;-86
2021/04/25 10:24:21;;;;;;;8.45;1.45;;;8.90;99.90;;;;;;6179401;23;20056;-86
2021/04/25 10:27:09;;;;;;;14.00;2.28;;;9.10;99.90;;;;;;6154440;23;20159;-86
2021/04/25 10:29:40;;;;;;;10.73;1.35;;;9.10;99.90;;;;;;6190969;23;20127;-86
2021/04/25 10:32:06;;;;;;;;;;;9.20;99.90;;;;;;6154345;23;20017;-84
2021/04/25 10:34:32;;;;;;;4.35;0.90;;;9.30;99.90;;;;;;6154593;23;20328;-86
2021/04/25 10:37:04;;;;;;;11.48;1.55;;;9.40;99.90;;;;;;6154273;23;20099;-86
2021/04/25 10:39:50;;;;;;;12.27;1.73;;;9.40;99.90;;;;;;6163749;23;20157;-86
2021/04/25 10:42:38;;;;;;;7.93;1.05;;;9.60;99.90;;;;;;6188654;23;20021;-86
2021/04/25 10:45:05;;;;;;;11.77;1.02;;;9.90;99.90;;;;;;6180133;23;20052;-86
2021/04/25 10:47:35;;;;;;;10.30;2.47;;;9.70;99.90;;;;;;6179785;23;20331;-86
2021/04/25 10:50:22;;;;;;;9.48;1.60;;;9.60;99.90;;;;;;6180725;23;20083;-86
2021/04/25 10:52:51;;;;;;;11.98;1.63;;;9.50;99.90;;;;;;6155250;23;20024;-86
2021/04/25 10:55:24;;;;;;;21.10;1.92;;;9.30;99.90;;;;;;6153530;23;20298;-85
2021/04/25 10:57:53;;;;;;;11.65;1.95;;;9.30;99.90;;;;;;6190525;23;20044;-87
2021/04/25 11:00:38;;;;;;;9.25;1.90;;;9.50;99.90;;;;;;6180043;23;20013;-86
2021/04/25 11:03:04;;;;;;;19.63;2.42;;;9.40;99.90;;;;;;6190707;23;20048;-86
2021/04/25 11:05:39;;;;;;;13.95;1.25;;;9.40;99.90;;;;;;6153788;23;20024;-86
2021/04/25 11:08:26;;;;;;;13.57;1.88;;;9.50;99.90;;;;;;6180422;23;20103;-86
2021/04/25 11:10:56;;;;;;;13.00;1.65;;;9.40;99.90;;;;;;6183003;23;20013;-87
2021/04/25 11:13:46;;;;;;;13.82;1.90;;;9.50;99.90;;;;;;6181591;23;20024;-87
2021/04/25 11:16:18;;;;;;;10.60;1.40;;;9.50;99.90;;;;;;6191709;23;20044;-87
2021/04/25 11:19:07;;;;;;;9.57;2.15;;;9.60;99.90;;;;;;6182341;23;20347;-87
2021/04/25 11:21:37;;;;;;;10.75;1.65;;;9.40;99.90;;;;;;6191773;23;20029;-86
2021/04/25 11:24:06;;;;;;;8.18;1.27;;;9.40;99.90;;;;;;6182842;23;20044;-87
2021/04/25 11:26:37;;;;;;;11.05;1.70;;;9.30;99.90;;;;;;6155447;23;20561;-87
2021/04/25 11:29:25;;;;;;;7.32;1.58;;;9.50;99.90;;;;;;6156316;23;20043;-87
2021/04/25 11:32:00;;;;;;;7.80;1.65;;;9.80;99.90;;;;;;6165617;23;20017;-87
2021/04/25 11:34:32;;;;;;;12.52;1.92;;;10.00;99.90;;;;;;6191436;23;20013;-86
2021/04/25 11:37:07;;;;;;;6.32;1.80;;;10.30;99.90;;;;;;6182252;23;20036;-86
2021/04/25 11:39:47;;;;;;;13.43;1.80;;;10.40;99.70;;;;;;6191022;23;20017;-86
2021/04/25 11:42:26;;;;;;;14.80;1.85;;;10.20;99.90;;;;;;6191374;23;20025;-86
2021/04/25 11:44:52;;;;;;;11.18;2.33;;;10.10;98.20;;;;;;6182218;23;20068;-86
2021/04/25 11:47:19;;;;;;;11.50;1.70;;;9.90;99.90;;;;;;6155790;23;20017;-86
2021/04/25 11:49:48;;;;;;;5.53;1.23;;;10.00;99.20;;;;;;6182321;23;20096;-86
2021/04/25 11:52:20;;;;;;;4.75;1.00;;;9.90;97.20;;;;;;6182094;23;20017;-85
2021/04/25 11:54:48;;;;;;;11.25;1.60;;;9.80;96.90;;;;;;6182035;23;20067;-87
2021/04/25 11:57:19;;;;;;;7.55;1.70;;;9.70;97.40;;;;;;6181627;23;20017;-86
2021/04/25 12:00:10;;;;;;;8.20;1.75;;;9.50;98.10;;;;;;6182100;23;20017;-87
2021/04/25 12:02:39;;;;;;;6.60;1.55;;;9.50;98.00;;;;;;6155213;23;20423;-88
2021/04/25 12:05:09;;;;;;;5.95;1.20;;;9.80;99.90;;;;;;6181730;23;20083;-87
2021/04/25 12:07:42;;;;;;;3.97;1.20;;;9.90;98.50;;;;;;6181382;23;20495;-86
2021/04/25 12:10:16;;;;;;;15.88;2.20;;;9.80;99.30;;;;;;6181866;23;20092;-87
2021/04/25 12:12:56;;;;;;;13.43;1.80;;;10.10;99.20;;;;;;6155804;23;20024;-86
2021/04/25 12:15:23;;;;;;;5.45;1.00;;;10.00;99.10;;;;;;6180926;23;20017;-86
2021/04/25 12:17:57;;;;;;;16.23;1.63;;;9.90;98.50;;;;;;6155410;23;20351;-87
2021/04/25 12:20:23;;;;;;;14.07;2.40;;;9.90;99.90;;;;;;6191086;23;20064;-87
2021/04/25 12:22:49;;;;;;;11.63;1.70;;;9.80;99.00;;;;;;6181752;23;20032;-85
2021/04/25 12:25:16;;;;;;;8.15;1.40;;;9.80;99.90;;;;;;6130353;23;20028;-86
2021/04/25 12:27:56;;;;;;;7.63;1.63;;;9.90;99.90;;;;;;6155734;23;20025;-86
2021/04/25 12:30:31;;;;;;;9.98;2.05;;;9.70;99.90;;;;;;6164386;23;20021;-86
2021/04/25 12:33:13;;;;;;;10.35;1.88;;;9.70;99.90;;;;;;6155173;23;20159;-87
2021/04/25 12:36:03;;;;;;;17.23;2.40;;;9.70;99.90;;;;;;6191572;23;20033;-87
2021/04/25 12:38:33;;;;;;;6.72;1.30;;;9.80;99.90;;;;;;6190889;23;20017;-87
2021/04/25 12:41:10;;;;;;;6.90;1.50;;;9.90;99.30;;;;;;6166598;23;20024;-86
2021/04/25 12:43:47;;;;;;;10.60;1.60;;;10.20;99.90;;;;;;6182792;23;20080;-87
2021/04/25 12:46:17;;;;;;;11.55;1.73;;;10.40;99.90;;;;;;6165214;23;20013;-86
2021/04/25 12:48:47;;;;;;;13.55;2.38;;;10.50;99.90;;;;;;6130634;23;20386;-87
2021/04/25 12:51:24;;;;;;;12.20;1.92;;;10.40;99.90;;;;;;6181793;23;20017;-86
2021/04/25 12:53:50;;;;;;;10.07;2.08;;;10.60;99.90;;;;;;6165368;23;20020;-88
2021/04/25 12:56:39;;;;;;;7.80;1.75;;;10.60;99.90;;;;;;6181904;23;20013;-86
2021/04/25 12:59:08;;;;;;;11.90;1.73;;;10.40;99.90;;;;;;6141947;23;20017;-86